Terminal Aerodrome Forecast
Issued by NWS

Home | Current Version | Previous Version | Text Only | Print | Product List | Glossary On
Versions: 1 2 3 4 5 6 7 8 9 10 11 12 13 14 15 16 17 18 19 20 21 22 23 24 25 26 27 28 29 30 31 32 33 34 35 36 37 38 39 40 41 42 43 44 45 46 47 48 49 50
076
FTAK31 PANC 291857 AAA
TAFASN
TAF AMD
PASN 291857Z 2919/3018 14029G41KT 5SM -RA BR SCT007 OVC015
      TEMPO 2919/2921 6SM -RA SCT020 OVC060
     FM300600 13020G28KT 5SM -SHRA BR OVC007=

USA.gov is the U.S. government's official web portal to all federal, state and local government web resources and services.